createdAt,value
2022-12-25T00:01:33.365Z,88.67
2022-12-25T00:04:36.161Z,88.72
2022-12-25T00:07:39.101Z,88.72
2022-12-25T00:10:45.218Z,88.78
2022-12-25T00:13:48.999Z,88.73
2022-12-25T00:16:51.720Z,88.81
2022-12-25T00:19:54.405Z,88.72
2022-12-25T00:22:57.505Z,88.52
2022-12-25T00:26:03.831Z,88.49
2022-12-25T00:29:06.657Z,88.42
2022-12-25T00:32:09.485Z,88.31
2022-12-25T00:35:12.351Z,88.23
2022-12-25T00:38:15.225Z,88.37
2022-12-25T00:41:43.635Z,88.41
2022-12-25T00:44:48.091Z,88.17
2022-12-25T00:47:50.829Z,88.16
2022-12-25T00:50:58.472Z,88.03
2022-12-25T00:54:01.730Z,87.53
2022-12-25T00:57:04.566Z,87.79
2022-12-25T01:00:08.008Z,86.17
2022-12-25T01:03:10.957Z,83.38
2022-12-25T01:06:13.937Z,83.47
2022-12-25T01:09:35.374Z,83.97
2022-12-25T01:12:40.753Z,83.55
2022-12-25T01:15:43.649Z,83.62
2022-12-25T01:18:46.915Z,83.98
2022-12-25T01:21:49.736Z,85.58
2022-12-25T01:24:52.527Z,86.14
2022-12-25T01:27:55.492Z,85.88
2022-12-25T01:30:58.375Z,86.01
2022-12-25T01:34:01.199Z,86.62
2022-12-25T01:37:04.258Z,86.91
2022-12-25T01:40:07.907Z,87.09
2022-12-25T01:43:20.439Z,87.18
2022-12-25T01:46:23.304Z,87.19
2022-12-25T01:49:26.403Z,86.88
2022-12-25T01:52:31.096Z,86.92
2022-12-25T01:55:35.189Z,86.92
2022-12-25T01:58:38.091Z,86.34
2022-12-25T02:01:42.093Z,86.63
2022-12-25T02:04:54.010Z,86.86
2022-12-25T02:07:59.618Z,86.83
2022-12-25T02:11:02.714Z,86.21
2022-12-25T02:14:06.135Z,86.31
2022-12-25T02:17:21.232Z,86.71
2022-12-25T02:20:47.408Z,86.83
2022-12-25T02:23:56.458Z,86.53
2022-12-25T02:27:14.532Z,86.70
2022-12-25T02:30:17.934Z,86.96
2022-12-25T02:33:50.160Z,87.27
2022-12-25T02:37:02.655Z,87.49
2022-12-25T02:40:30.784Z,87.08
2022-12-25T02:43:59.155Z,87.07
2022-12-25T02:47:23.001Z,87.28
2022-12-25T02:50:44.719Z,87.55
2022-12-25T02:54:10.230Z,87.74
2022-12-25T02:57:36.153Z,87.68
2022-12-25T03:01:02.634Z,87.68
2022-12-25T03:04:29.264Z,87.72
2022-12-25T03:07:33.178Z,87.68
2022-12-25T03:10:59.067Z,87.57
2022-12-25T03:14:26.432Z,87.20
2022-12-25T03:17:32.454Z,86.95
2022-12-25T03:20:54.112Z,86.43
2022-12-25T03:24:19.465Z,86.87
2022-12-25T03:27:21.993Z,86.97
2022-12-25T03:31:00.497Z,86.94
2022-12-25T03:34:38.137Z,85.90
2022-12-25T03:38:24.396Z,86.45
2022-12-25T03:42:01.611Z,86.85
2022-12-25T03:45:40.342Z,86.81
2022-12-25T03:49:08.360Z,87.09
2022-12-25T03:52:34.880Z,87.31
2022-12-25T03:55:59.806Z,87.46
2022-12-25T03:59:24.157Z,87.62
2022-12-25T04:02:46.164Z,87.41
2022-12-25T04:06:21.607Z,84.78
2022-12-25T04:09:43.012Z,84.65
2022-12-25T04:13:04.819Z,86.36
2022-12-25T04:16:26.430Z,87.33
2022-12-25T04:19:48.006Z,87.62
2022-12-25T04:23:08.866Z,87.69
2022-12-25T04:26:30.202Z,85.82
2022-12-25T04:29:51.793Z,86.64
2022-12-25T04:33:19.408Z,87.33
2022-12-25T04:36:22.129Z,85.84
2022-12-25T04:39:25.210Z,86.42
2022-12-25T04:42:27.873Z,87.12
2022-12-25T04:45:30.973Z,87.05
2022-12-25T04:48:35.987Z,86.48
2022-12-25T04:51:39.126Z,86.88
2022-12-25T04:54:41.699Z,86.84
2022-12-25T04:57:45.301Z,86.44
2022-12-25T05:00:47.879Z,86.58
2022-12-25T05:03:51.038Z,87.25
2022-12-25T05:06:54.470Z,87.63
2022-12-25T05:09:58.397Z,87.58
2022-12-25T05:13:00.904Z,87.85
2022-12-25T05:16:15.476Z,88.05
2022-12-25T05:19:18.028Z,87.90
2022-12-25T05:22:21.133Z,87.58
2022-12-25T05:25:23.688Z,87.73
2022-12-25T05:28:26.815Z,87.94
2022-12-25T05:31:29.340Z,87.93
2022-12-25T05:34:32.504Z,88.05
2022-12-25T05:37:36.294Z,88.09
2022-12-25T05:40:40.932Z,86.43
2022-12-25T05:43:43.611Z,87.20
2022-12-25T05:46:46.845Z,87.30
2022-12-25T05:49:49.400Z,86.57
2022-12-25T05:52:52.469Z,87.25
2022-12-25T05:55:54.960Z,87.49
2022-12-25T05:58:58.038Z,87.58
2022-12-25T06:02:00.736Z,87.50
2022-12-25T06:05:04.889Z,87.72
2022-12-25T06:08:07.672Z,87.90
2022-12-25T06:11:12.630Z,88.11
2022-12-25T06:14:17.089Z,88.25
2022-12-25T06:17:20.147Z,88.40
2022-12-25T06:20:22.702Z,88.59
2022-12-25T06:23:25.831Z,88.64
2022-12-25T06:26:28.571Z,88.51
2022-12-25T06:29:31.710Z,88.54
2022-12-25T06:32:34.279Z,88.45
2022-12-25T06:35:39.577Z,88.44
2022-12-25T06:38:42.407Z,88.37
2022-12-25T06:41:45.445Z,88.50
2022-12-25T06:44:48.008Z,88.53
2022-12-25T06:47:51.121Z,88.54
2022-12-25T06:50:53.604Z,88.73
2022-12-25T06:53:58.802Z,89.00
2022-12-25T06:57:01.396Z,89.24
2022-12-25T07:00:05.304Z,89.32
2022-12-25T07:03:07.756Z,89.36
2022-12-25T07:06:10.824Z,89.11
2022-12-25T07:09:13.357Z,88.81
2022-12-25T07:12:19.588Z,88.66
2022-12-25T07:15:22.084Z,89.01
2022-12-25T07:18:25.531Z,87.35
2022-12-25T07:21:28.056Z,85.70
2022-12-25T07:24:31.148Z,86.42
2022-12-25T07:27:33.642Z,86.34
2022-12-25T07:30:37.719Z,86.32
2022-12-25T07:33:40.159Z,86.95
2022-12-25T07:36:43.153Z,87.36
2022-12-25T07:39:45.642Z,87.58
2022-12-25T07:42:48.859Z,87.86
2022-12-25T07:45:56.853Z,88.20
2022-12-25T07:49:00.751Z,85.03
2022-12-25T07:52:03.461Z,84.11
2022-12-25T07:55:06.861Z,84.79
2022-12-25T07:58:09.623Z,82.80
2022-12-25T08:01:19.465Z,84.05
2022-12-25T08:04:22.381Z,83.57
2022-12-25T08:07:25.271Z,84.04
2022-12-25T08:10:28.061Z,84.17
2022-12-25T08:13:32.603Z,83.98
2022-12-25T08:16:35.874Z,83.74
2022-12-25T08:19:38.654Z,83.33
2022-12-25T08:22:41.394Z,83.17
2022-12-25T08:25:44.165Z,82.56
2022-12-25T08:28:47.802Z,82.01
2022-12-25T08:31:50.653Z,80.75
2022-12-25T08:34:53.516Z,80.77
2022-12-25T08:37:56.362Z,78.83
2022-12-25T08:40:59.186Z,77.39
2022-12-25T08:44:03.629Z,78.08
2022-12-25T08:47:06.412Z,77.08
2022-12-25T08:50:09.671Z,73.94
2022-12-25T08:53:14.048Z,72.42
2022-12-25T08:56:18.183Z,73.21
2022-12-25T08:59:21.137Z,71.94
2022-12-25T09:02:24.120Z,69.80
2022-12-25T09:05:27.133Z,66.91
2022-12-25T09:08:30.205Z,64.57
2022-12-25T09:11:33.059Z,60.72
2022-12-25T09:14:36.627Z,57.67
2022-12-25T09:17:39.722Z,56.93
2022-12-25T09:20:42.430Z,58.77
2022-12-25T09:23:45.528Z,59.45
2022-12-25T09:26:48.677Z,62.32
2022-12-25T09:29:51.325Z,62.69
2022-12-25T09:32:54.111Z,63.39
2022-12-25T09:36:08.677Z,65.52
2022-12-25T09:39:11.465Z,64.93
2022-12-25T09:42:19.426Z,65.25
2022-12-25T09:45:38.131Z,63.07
2022-12-25T09:48:50.432Z,57.24
2022-12-25T09:51:59.398Z,52.74
2022-12-25T09:55:08.505Z,47.58
2022-12-25T09:58:13.227Z,43.49
2022-12-25T10:01:22.236Z,45.20
2022-12-25T10:04:41.189Z,47.62
2022-12-25T10:08:09.062Z,46.68
2022-12-25T10:11:18.037Z,45.82
2022-12-25T10:14:38.730Z,43.45
2022-12-25T10:18:00.697Z,42.24
2022-12-25T10:21:11.136Z,39.38
2022-12-25T10:24:31.812Z,35.74
2022-12-25T10:27:42.815Z,33.76
2022-12-25T10:30:46.030Z,32.19
2022-12-25T10:33:50.915Z,32.57
2022-12-25T10:36:54.697Z,32.74
2022-12-25T10:39:57.392Z,32.45
2022-12-25T10:43:08.948Z,31.99
2022-12-25T10:46:14.536Z,31.36
2022-12-25T10:49:20.968Z,30.91
2022-12-25T10:52:26.840Z,28.60
2022-12-25T10:55:30.175Z,25.67
2022-12-25T10:58:33.937Z,26.89
2022-12-25T11:01:37.325Z,25.91
2022-12-25T11:04:40.428Z,26.01
2022-12-25T11:07:54.347Z,24.16
2022-12-25T11:11:08.846Z,22.46
2022-12-25T11:14:20.559Z,22.12
2022-12-25T11:17:25.573Z,21.56
2022-12-25T11:20:30.043Z,21.01
2022-12-25T11:23:33.092Z,20.97
2022-12-25T11:26:50.346Z,20.83
2022-12-25T11:30:04.562Z,22.20
2022-12-25T11:33:12.580Z,23.36
2022-12-25T11:36:27.004Z,25.35
2022-12-25T11:39:31.278Z,25.85
2022-12-25T11:42:33.770Z,26.71
2022-12-25T11:45:40.487Z,28.55
2022-12-25T11:49:08.851Z,30.00
2022-12-25T11:52:14.597Z,29.97
2022-12-25T11:55:19.903Z,29.26
2022-12-25T11:58:39.742Z,27.56
2022-12-25T12:01:42.337Z,25.84
2022-12-25T12:16:31.046Z,20.30
2022-12-25T12:19:34.862Z,22.14
2022-12-25T12:22:37.786Z,21.66
2022-12-25T12:25:42.911Z,21.78
2022-12-25T12:28:47.947Z,22.09
2022-12-25T12:31:52.181Z,20.87
2022-12-25T12:34:56.673Z,22.13
2022-12-25T12:38:12.006Z,22.31
2022-12-25T12:41:16.382Z,25.96
2022-12-25T12:44:25.031Z,30.95
2022-12-25T12:47:37.098Z,33.71
2022-12-25T12:50:41.581Z,37.04
2022-12-25T12:53:44.466Z,37.95
2022-12-25T12:57:02.606Z,41.25
2022-12-25T13:00:10.806Z,42.95
2022-12-25T13:03:44.691Z,43.25
2022-12-25T13:06:57.092Z,44.74
2022-12-25T13:10:13.718Z,47.08
2022-12-25T13:13:28.356Z,48.10
2022-12-25T13:16:38.744Z,49.84
2022-12-25T13:19:43.654Z,50.63
2022-12-25T13:22:52.413Z,51.49
2022-12-25T13:25:58.144Z,52.58
2022-12-25T13:29:03.897Z,53.40
2022-12-25T13:32:30.965Z,53.38
2022-12-25T13:35:33.789Z,53.77
2022-12-25T13:38:36.864Z,54.31
2022-12-25T13:42:02.418Z,54.31
2022-12-25T13:45:18.701Z,54.29
2022-12-25T13:48:23.263Z,54.93
2022-12-25T13:51:26.795Z,54.63
2022-12-25T13:54:29.794Z,55.60
2022-12-25T13:57:37.057Z,56.10
2022-12-25T14:00:52.810Z,56.15
2022-12-25T14:03:56.508Z,57.14
2022-12-25T14:07:08.613Z,58.25
2022-12-25T14:10:13.095Z,57.58
2022-12-25T14:13:18.110Z,58.39
2022-12-25T14:16:22.216Z,59.80
2022-12-25T14:19:30.712Z,59.90
2022-12-25T14:22:35.457Z,61.11
2022-12-25T14:25:45.446Z,60.75
2022-12-25T14:28:54.070Z,62.14
2022-12-25T14:31:58.857Z,63.34
2022-12-25T14:35:03.652Z,63.54
2022-12-25T14:38:06.556Z,63.85
2022-12-25T14:41:33.569Z,64.94
2022-12-25T14:44:41.327Z,65.83
2022-12-25T14:47:59.972Z,66.69
2022-12-25T14:51:15.518Z,66.80
2022-12-25T14:54:22.505Z,67.20
2022-12-25T14:57:34.742Z,68.02
2022-12-25T15:00:39.486Z,68.99
2022-12-25T15:03:42.131Z,69.61
2022-12-25T15:06:55.636Z,70.29
2022-12-25T15:10:27.029Z,70.86
2022-12-25T15:13:21.516Z,72.01
2022-12-25T15:16:40.019Z,72.51
2022-12-25T15:19:43.341Z,73.83
2022-12-25T15:23:17.818Z,74.14
2022-12-25T15:26:13.521Z,74.21
2022-12-25T15:29:16.144Z,74.82
2022-12-25T15:32:20.355Z,75.33
2022-12-25T15:35:22.805Z,75.71
2022-12-25T15:38:25.885Z,76.23
2022-12-25T15:41:50.004Z,76.46
2022-12-25T15:44:53.202Z,76.55
2022-12-25T15:47:56.047Z,76.84
2022-12-25T15:50:59.242Z,76.78
2022-12-25T15:54:01.857Z,76.76
2022-12-25T15:57:07.173Z,76.94
2022-12-25T16:00:17.434Z,76.55
2022-12-25T16:03:21.015Z,76.71
2022-12-25T16:06:23.872Z,76.81
2022-12-25T16:09:27.981Z,77.02
2022-12-25T16:12:30.718Z,77.14
2022-12-25T16:15:34.327Z,77.01
2022-12-25T16:18:41.942Z,77.12
2022-12-25T16:21:50.435Z,77.38
2022-12-25T16:24:53.808Z,77.32
2022-12-25T16:27:57.065Z,77.06
2022-12-25T16:31:00.016Z,76.83
2022-12-25T16:34:05.115Z,76.64
2022-12-25T16:37:08.077Z,75.68
2022-12-25T16:40:11.924Z,76.50
2022-12-25T16:43:20.292Z,76.72
2022-12-25T16:46:27.032Z,76.84
2022-12-25T16:49:30.021Z,76.91
2022-12-25T16:52:36.411Z,76.69
2022-12-25T16:55:40.001Z,76.53
2022-12-25T16:58:47.717Z,76.33
2022-12-25T17:01:50.582Z,74.48
2022-12-25T17:04:54.728Z,75.17
2022-12-25T17:07:59.389Z,74.95
2022-12-25T17:11:04.667Z,75.37
2022-12-25T17:14:07.615Z,75.72
2022-12-25T17:17:11.314Z,75.26
2022-12-25T17:20:20.286Z,75.70
2022-12-25T17:23:23.952Z,75.69
2022-12-25T17:26:27.884Z,74.39
2022-12-25T17:29:32.032Z,74.80
2022-12-25T17:32:34.804Z,75.18
2022-12-25T17:35:38.427Z,74.27
2022-12-25T17:38:42.253Z,73.79
2022-12-25T17:41:46.034Z,74.73
2022-12-25T17:44:48.973Z,74.54
2022-12-25T17:47:55.063Z,74.02
2022-12-25T17:51:02.308Z,74.18
2022-12-25T17:54:06.102Z,74.91
2022-12-25T17:57:09.033Z,75.13
2022-12-25T18:00:13.284Z,74.72
2022-12-25T18:03:16.786Z,75.50
2022-12-25T18:06:25.231Z,76.21
2022-12-25T18:09:28.524Z,76.27
2022-12-25T18:12:32.151Z,75.25
2022-12-25T18:15:38.555Z,76.21
2022-12-25T18:18:46.524Z,76.33
2022-12-25T18:21:54.645Z,76.26
2022-12-25T18:24:58.058Z,74.66
2022-12-25T18:28:02.735Z,76.00
2022-12-25T18:31:24.744Z,76.47
2022-12-25T18:34:28.061Z,76.33
2022-12-25T18:37:34.457Z,76.66
2022-12-25T18:40:48.349Z,76.77
2022-12-25T18:43:55.562Z,76.27
2022-12-25T18:46:59.254Z,76.30
2022-12-25T18:50:03.170Z,75.96
2022-12-25T18:53:07.505Z,76.04
2022-12-25T18:56:15.250Z,75.72
2022-12-25T18:59:18.852Z,75.43
2022-12-25T19:02:22.360Z,75.60
2022-12-25T19:05:26.344Z,76.12
2022-12-25T19:08:29.695Z,76.39
2022-12-25T19:11:46.617Z,75.51
2022-12-25T19:14:50.844Z,75.51
2022-12-25T19:17:56.960Z,75.26
2022-12-25T19:21:05.465Z,75.90
2022-12-25T19:24:08.819Z,76.01
2022-12-25T19:27:12.252Z,76.00
2022-12-25T19:30:15.755Z,75.99
2022-12-25T19:33:19.081Z,75.71
2022-12-25T19:36:22.288Z,75.40
2022-12-25T19:39:25.706Z,75.58
2022-12-25T19:42:28.946Z,75.49
2022-12-25T19:45:32.756Z,75.23
2022-12-25T19:48:36.306Z,73.65
2022-12-25T19:51:43.027Z,74.10
2022-12-25T19:54:46.309Z,75.01
2022-12-25T19:57:50.140Z,75.53
2022-12-25T20:01:01.659Z,75.13
2022-12-25T20:04:08.710Z,74.09
2022-12-25T20:07:11.700Z,74.15
2022-12-25T20:10:15.210Z,74.58
2022-12-25T20:13:18.602Z,75.07
2022-12-25T20:16:22.654Z,75.30
2022-12-25T20:19:25.453Z,75.42
2022-12-25T20:22:28.666Z,75.65
2022-12-25T20:25:31.373Z,73.43
2022-12-25T20:28:36.238Z,74.40
2022-12-25T20:31:38.792Z,73.04
2022-12-25T20:34:42.051Z,72.96
2022-12-25T20:37:45.039Z,73.59
2022-12-25T20:41:25.127Z,75.17
2022-12-25T20:44:10.960Z,76.38
2022-12-25T20:47:14.387Z,76.81
2022-12-25T20:50:17.134Z,76.99
2022-12-25T20:53:20.468Z,76.50
2022-12-25T20:56:24.997Z,76.66
2022-12-25T20:59:35.243Z,76.83
2022-12-25T21:02:40.088Z,76.03
2022-12-25T21:05:51.523Z,74.14
2022-12-25T21:08:54.778Z,74.57
2022-12-25T21:11:58.091Z,75.06
2022-12-25T21:15:00.825Z,74.69
2022-12-25T21:18:03.853Z,75.87
2022-12-25T21:21:07.792Z,76.48
2022-12-25T21:24:11.147Z,76.74
2022-12-25T21:27:14.033Z,76.90
2022-12-25T21:30:17.360Z,76.48
2022-12-25T21:33:38.801Z,76.46
2022-12-25T21:36:41.973Z,76.47
2022-12-25T21:39:44.523Z,76.51
2022-12-25T21:42:47.638Z,76.48
2022-12-25T21:45:50.137Z,76.16
2022-12-25T21:48:54.246Z,76.01
2022-12-25T21:52:09.361Z,75.59
2022-12-25T21:55:12.548Z,75.22
2022-12-25T21:58:15.081Z,75.27
2022-12-25T22:01:18.723Z,75.43
2022-12-25T22:04:23.293Z,75.60
2022-12-25T22:07:26.131Z,75.44
2022-12-25T22:10:31.162Z,75.09
2022-12-25T22:13:52.746Z,75.43
2022-12-25T22:17:14.153Z,75.58
2022-12-25T22:20:28.263Z,75.54
2022-12-25T22:23:31.211Z,75.66
2022-12-25T22:26:35.000Z,75.49
2022-12-25T22:29:37.945Z,75.58
2022-12-25T22:32:41.434Z,75.31
2022-12-25T22:35:44.336Z,75.45
2022-12-25T22:38:47.214Z,74.55
2022-12-25T22:41:50.094Z,74.33
2022-12-25T22:44:52.968Z,74.97
2022-12-25T22:47:55.839Z,75.36
2022-12-25T22:51:02.610Z,75.46
2022-12-25T22:54:08.727Z,75.10
2022-12-25T22:57:11.700Z,75.00
2022-12-25T23:00:14.814Z,75.22
2022-12-25T23:03:17.865Z,75.33
2022-12-25T23:06:21.134Z,75.48
2022-12-25T23:09:27.895Z,75.58
2022-12-25T23:12:50.546Z,75.70
2022-12-25T23:15:53.440Z,75.84
2022-12-25T23:19:15.295Z,75.91
2022-12-25T23:22:36.928Z,75.69
2022-12-25T23:25:58.990Z,75.69
2022-12-25T23:29:20.701Z,75.86
2022-12-25T23:32:27.952Z,75.92
2022-12-25T23:35:32.777Z,75.80
2022-12-25T23:38:36.862Z,75.65
2022-12-25T23:41:41.440Z,76.01
2022-12-25T23:44:45.381Z,76.00
2022-12-25T23:47:48.269Z,76.07
2022-12-25T23:50:51.315Z,76.32
2022-12-25T23:53:54.250Z,76.35
2022-12-25T23:56:58.535Z,76.47
